sensor_id;sensor_type;location;lat;lon;timestamp;temperature;humidity
670;DHT22;317;48.758;9.302;2022-08-14T00:00:09;18.10;92.00
670;DHT22;317;48.758;9.302;2022-08-14T00:02:37;18.10;92.50
670;DHT22;317;48.758;9.302;2022-08-14T00:05:04;18.10;92.90
670;DHT22;317;48.758;9.302;2022-08-14T00:07:31;18.00;93.30
670;DHT22;317;48.758;9.302;2022-08-14T00:10:00;18.00;93.90
670;DHT22;317;48.758;9.302;2022-08-14T00:12:27;17.90;94.50
670;DHT22;317;48.758;9.302;2022-08-14T00:14:55;17.90;94.80
670;DHT22;317;48.758;9.302;2022-08-14T00:17:22;17.80;94.80
670;DHT22;317;48.758;9.302;2022-08-14T00:19:51;17.80;95.60
670;DHT22;317;48.758;9.302;2022-08-14T00:22:18;17.70;96.50
670;DHT22;317;48.758;9.302;2022-08-14T00:24:45;17.70;96.40
670;DHT22;317;48.758;9.302;2022-08-14T00:27:12;17.70;96.40
670;DHT22;317;48.758;9.302;2022-08-14T00:29:38;17.60;96.50
670;DHT22;317;48.758;9.302;2022-08-14T00:32:07;17.60;97.00
670;DHT22;317;48.758;9.302;2022-08-14T00:34:34;17.60;96.80
670;DHT22;317;48.758;9.302;2022-08-14T00:37:01;17.60;98.10
670;DHT22;317;48.758;9.302;2022-08-14T00:39:28;17.50;98.80
670;DHT22;317;48.758;9.302;2022-08-14T00:41:54;17.50;99.40
670;DHT22;317;48.758;9.302;2022-08-14T00:44:21;17.40;99.60
670;DHT22;317;48.758;9.302;2022-08-14T00:46:48;17.40;99.60
670;DHT22;317;48.758;9.302;2022-08-14T00:49:16;17.40;99.90
670;DHT22;317;48.758;9.302;2022-08-14T00:51:43;17.40;99.90
670;DHT22;317;48.758;9.302;2022-08-14T00:54:11;17.40;99.90
670;DHT22;317;48.758;9.302;2022-08-14T00:56:38;17.30;99.90
670;DHT22;317;48.758;9.302;2022-08-14T00:59:05;17.30;99.90
670;DHT22;317;48.758;9.302;2022-08-14T01:01:34;17.30;99.90
670;DHT22;317;48.758;9.302;2022-08-14T01:04:02;17.20;99.90
670;DHT22;317;48.758;9.302;2022-08-14T01:06:31;17.20;99.90
670;DHT22;317;48.758;9.302;2022-08-14T01:08:59;17.10;99.90
670;DHT22;317;48.758;9.302;2022-08-14T01:11:27;17.00;99.90
670;DHT22;317;48.758;9.302;2022-08-14T01:13:53;17.00;99.90
670;DHT22;317;48.758;9.302;2022-08-14T01:16:26;17.00;99.90
670;DHT22;317;48.758;9.302;2022-08-14T01:18:55;17.00;99.90
670;DHT22;317;48.758;9.302;2022-08-14T01:21:41;16.90;99.90
670;DHT22;317;48.758;9.302;2022-08-14T01:24:10;16.80;99.90
670;DHT22;317;48.758;9.302;2022-08-14T01:26:40;16.80;99.90
670;DHT22;317;48.758;9.302;2022-08-14T01:29:07;16.80;99.90
670;DHT22;317;48.758;9.302;2022-08-14T01:31:36;16.80;99.90
670;DHT22;317;48.758;9.302;2022-08-14T01:34:05;16.70;99.90
670;DHT22;317;48.758;9.302;2022-08-14T01:36:32;16.60;99.90
670;DHT22;317;48.758;9.302;2022-08-14T01:39:06;16.60;99.90
670;DHT22;317;48.758;9.302;2022-08-14T01:41:35;16.50;99.90
670;DHT22;317;48.758;9.302;2022-08-14T01:44:05;16.50;99.90
670;DHT22;317;48.758;9.302;2022-08-14T01:46:35;16.50;99.90
670;DHT22;317;48.758;9.302;2022-08-14T01:49:05;16.50;99.90
670;DHT22;317;48.758;9.302;2022-08-14T01:51:32;16.50;99.90
670;DHT22;317;48.758;9.302;2022-08-14T01:54:07;16.50;99.90
670;DHT22;317;48.758;9.302;2022-08-14T01:56:37;16.50;99.90
670;DHT22;317;48.758;9.302;2022-08-14T01:59:06;16.50;99.90
670;DHT22;317;48.758;9.302;2022-08-14T02:01:33;16.40;99.90
670;DHT22;317;48.758;9.302;2022-08-14T02:04:03;16.30;99.90
670;DHT22;317;48.758;9.302;2022-08-14T02:06:29;16.30;99.90
670;DHT22;317;48.758;9.302;2022-08-14T02:08:57;16.30;99.90
670;DHT22;317;48.758;9.302;2022-08-14T02:11:26;16.30;99.90
670;DHT22;317;48.758;9.302;2022-08-14T02:13:58;16.30;99.90
670;DHT22;317;48.758;9.302;2022-08-14T02:16:27;16.30;99.90
670;DHT22;317;48.758;9.302;2022-08-14T02:18:55;16.30;99.90
670;DHT22;317;48.758;9.302;2022-08-14T02:21:22;16.20;99.90
670;DHT22;317;48.758;9.302;2022-08-14T02:23:51;16.20;99.90
670;DHT22;317;48.758;9.302;2022-08-14T02:26:21;16.20;99.90
670;DHT22;317;48.758;9.302;2022-08-14T02:28:51;16.20;99.90
670;DHT22;317;48.758;9.302;2022-08-14T02:31:18;16.20;99.90
670;DHT22;317;48.758;9.302;2022-08-14T02:33:45;16.20;99.90
670;DHT22;317;48.758;9.302;2022-08-14T02:36:13;16.10;99.90
670;DHT22;317;48.758;9.302;2022-08-14T02:38:41;16.10;99.90
670;DHT22;317;48.758;9.302;2022-08-14T02:41:10;16.10;99.90
670;DHT22;317;48.758;9.302;2022-08-14T02:43:37;16.10;99.90
670;DHT22;317;48.758;9.302;2022-08-14T02:46:08;16.00;99.90
670;DHT22;317;48.758;9.302;2022-08-14T02:48:37;15.90;99.90
670;DHT22;317;48.758;9.302;2022-08-14T02:51:06;15.90;99.90
670;DHT22;317;48.758;9.302;2022-08-14T02:53:33;15.90;99.90
670;DHT22;317;48.758;9.302;2022-08-14T02:56:01;15.90;99.90
670;DHT22;317;48.758;9.302;2022-08-14T02:58:29;15.90;99.90
670;DHT22;317;48.758;9.302;2022-08-14T03:00:56;15.80;99.90
670;DHT22;317;48.758;9.302;2022-08-14T03:03:24;15.80;99.90
670;DHT22;317;48.758;9.302;2022-08-14T03:05:51;15.80;99.90
670;DHT22;317;48.758;9.302;2022-08-14T03:08:19;15.80;99.90
670;DHT22;317;48.758;9.302;2022-08-14T03:10:47;15.70;99.90
670;DHT22;317;48.758;9.302;2022-08-14T03:13:15;15.70;99.90
670;DHT22;317;48.758;9.302;2022-08-14T03:15:42;15.60;99.90
670;DHT22;317;48.758;9.302;2022-08-14T03:18:12;15.60;99.90
670;DHT22;317;48.758;9.302;2022-08-14T03:20:41;15.60;99.90
670;DHT22;317;48.758;9.302;2022-08-14T03:23:07;15.60;99.90
670;DHT22;317;48.758;9.302;2022-08-14T03:25:35;15.60;99.90
670;DHT22;317;48.758;9.302;2022-08-14T03:28:03;15.60;99.90
670;DHT22;317;48.758;9.302;2022-08-14T03:30:32;15.50;99.90
670;DHT22;317;48.758;9.302;2022-08-14T03:33:00;15.50;99.90
670;DHT22;317;48.758;9.302;2022-08-14T03:35:28;15.50;99.90
670;DHT22;317;48.758;9.302;2022-08-14T03:38:04;15.50;99.90
670;DHT22;317;48.758;9.302;2022-08-14T03:40:34;15.50;99.90
670;DHT22;317;48.758;9.302;2022-08-14T03:43:03;15.50;99.90
670;DHT22;317;48.758;9.302;2022-08-14T03:45:30;15.50;99.90
670;DHT22;317;48.758;9.302;2022-08-14T03:47:57;15.40;99.90
670;DHT22;317;48.758;9.302;2022-08-14T03:50:27;15.30;99.90
670;DHT22;317;48.758;9.302;2022-08-14T03:52:55;15.40;99.90
670;DHT22;317;48.758;9.302;2022-08-14T03:55:22;15.30;99.90
670;DHT22;317;48.758;9.302;2022-08-14T03:57:49;15.30;99.90
670;DHT22;317;48.758;9.302;2022-08-14T04:00:16;15.30;99.90
670;DHT22;317;48.758;9.302;2022-08-14T04:02:43;15.30;99.90
670;DHT22;317;48.758;9.302;2022-08-14T04:05:09;15.20;99.90
670;DHT22;317;48.758;9.302;2022-08-14T04:07:36;15.20;99.90
670;DHT22;317;48.758;9.302;2022-08-14T04:10:07;15.20;99.90
670;DHT22;317;48.758;9.302;2022-08-14T04:12:34;15.20;99.90
670;DHT22;317;48.758;9.302;2022-08-14T04:15:02;15.20;99.90
670;DHT22;317;48.758;9.302;2022-08-14T04:17:30;15.10;99.90
670;DHT22;317;48.758;9.302;2022-08-14T04:19:58;15.20;99.90
670;DHT22;317;48.758;9.302;2022-08-14T04:22:29;15.20;99.90
670;DHT22;317;48.758;9.302;2022-08-14T04:24:58;15.20;99.90
670;DHT22;317;48.758;9.302;2022-08-14T04:27:27;15.10;99.90
670;DHT22;317;48.758;9.302;2022-08-14T04:29:55;15.20;99.90
670;DHT22;317;48.758;9.302;2022-08-14T04:32:23;15.10;99.90
670;DHT22;317;48.758;9.302;2022-08-14T04:34:52;15.20;99.90
670;DHT22;317;48.758;9.302;2022-08-14T04:37:21;15.10;99.90
670;DHT22;317;48.758;9.302;2022-08-14T04:40:06;15.20;99.90
670;DHT22;317;48.758;9.302;2022-08-14T04:42:53;15.20;99.90
670;DHT22;317;48.758;9.302;2022-08-14T04:45:37;15.10;99.90
670;DHT22;317;48.758;9.302;2022-08-14T04:48:07;15.20;99.90
670;DHT22;317;48.758;9.302;2022-08-14T04:50:40;15.20;99.90
670;DHT22;317;48.758;9.302;2022-08-14T04:53:08;15.20;99.90
670;DHT22;317;48.758;9.302;2022-08-14T04:55:38;15.30;99.90
670;DHT22;317;48.758;9.302;2022-08-14T04:58:07;15.30;99.90
670;DHT22;317;48.758;9.302;2022-08-14T05:00:36;15.30;99.90
670;DHT22;317;48.758;9.302;2022-08-14T05:03:05;15.30;99.90
670;DHT22;317;48.758;9.302;2022-08-14T05:05:32;15.40;99.90
670;DHT22;317;48.758;9.302;2022-08-14T05:08:04;15.50;99.90
670;DHT22;317;48.758;9.302;2022-08-14T05:10:35;15.60;99.90
670;DHT22;317;48.758;9.302;2022-08-14T05:13:02;15.70;99.90
670;DHT22;317;48.758;9.302;2022-08-14T05:15:32;15.70;99.90
670;DHT22;317;48.758;9.302;2022-08-14T05:18:01;15.90;99.90
670;DHT22;317;48.758;9.302;2022-08-14T05:20:28;16.00;99.90
670;DHT22;317;48.758;9.302;2022-08-14T05:22:55;16.00;99.90
670;DHT22;317;48.758;9.302;2022-08-14T05:25:23;16.10;99.90
670;DHT22;317;48.758;9.302;2022-08-14T05:27:50;16.10;99.90
670;DHT22;317;48.758;9.302;2022-08-14T05:30:17;16.20;99.90
670;DHT22;317;48.758;9.302;2022-08-14T05:32:46;16.30;99.90
670;DHT22;317;48.758;9.302;2022-08-14T05:35:13;16.30;99.90
670;DHT22;317;48.758;9.302;2022-08-14T05:37:39;16.40;99.90
670;DHT22;317;48.758;9.302;2022-08-14T05:40:07;16.40;99.90
670;DHT22;317;48.758;9.302;2022-08-14T05:42:36;16.50;99.90
670;DHT22;317;48.758;9.302;2022-08-14T05:45:04;16.60;99.90
670;DHT22;317;48.758;9.302;2022-08-14T05:47:37;16.60;99.90
670;DHT22;317;48.758;9.302;2022-08-14T05:50:08;16.60;99.90
670;DHT22;317;48.758;9.302;2022-08-14T05:52:38;16.60;99.90
670;DHT22;317;48.758;9.302;2022-08-14T05:55:06;16.60;99.90
670;DHT22;317;48.758;9.302;2022-08-14T05:57:33;16.60;99.90
670;DHT22;317;48.758;9.302;2022-08-14T06:00:00;16.70;99.90
670;DHT22;317;48.758;9.302;2022-08-14T06:02:27;16.70;99.90
670;DHT22;317;48.758;9.302;2022-08-14T06:04:57;16.70;99.90
670;DHT22;317;48.758;9.302;2022-08-14T06:07:28;16.70;99.90
670;DHT22;317;48.758;9.302;2022-08-14T06:09:55;16.80;99.90
670;DHT22;317;48.758;9.302;2022-08-14T06:12:21;16.90;99.90
670;DHT22;317;48.758;9.302;2022-08-14T06:14:48;16.90;99.90
670;DHT22;317;48.758;9.302;2022-08-14T06:17:15;17.00;99.90
670;DHT22;317;48.758;9.302;2022-08-14T06:19:42;17.10;99.90
670;DHT22;317;48.758;9.302;2022-08-14T06:22:08;17.20;99.90
670;DHT22;317;48.758;9.302;2022-08-14T06:24:36;17.10;99.90
670;DHT22;317;48.758;9.302;2022-08-14T06:27:04;17.30;99.90
670;DHT22;317;48.758;9.302;2022-08-14T06:29:31;17.30;99.90
670;DHT22;317;48.758;9.302;2022-08-14T06:31:58;17.30;99.90
670;DHT22;317;48.758;9.302;2022-08-14T06:34:25;17.40;99.90
670;DHT22;317;48.758;9.302;2022-08-14T06:36:51;17.60;99.90
670;DHT22;317;48.758;9.302;2022-08-14T06:39:21;17.70;99.90
670;DHT22;317;48.758;9.302;2022-08-14T06:41:49;17.80;99.90
670;DHT22;317;48.758;9.302;2022-08-14T06:44:16;17.80;99.90
670;DHT22;317;48.758;9.302;2022-08-14T06:46:43;17.90;99.90
670;DHT22;317;48.758;9.302;2022-08-14T06:49:09;18.00;99.90
670;DHT22;317;48.758;9.302;2022-08-14T06:51:36;18.10;99.90
670;DHT22;317;48.758;9.302;2022-08-14T06:54:03;18.30;99.90
670;DHT22;317;48.758;9.302;2022-08-14T06:56:30;18.40;99.90
670;DHT22;317;48.758;9.302;2022-08-14T06:58:58;18.50;99.90
670;DHT22;317;48.758;9.302;2022-08-14T07:01:25;18.60;99.90
670;DHT22;317;48.758;9.302;2022-08-14T07:04:09;18.80;99.90
670;DHT22;317;48.758;9.302;2022-08-14T07:06:53;18.90;99.90
670;DHT22;317;48.758;9.302;2022-08-14T07:09:20;19.00;99.90
670;DHT22;317;48.758;9.302;2022-08-14T07:11:47;19.10;99.90
670;DHT22;317;48.758;9.302;2022-08-14T07:14:15;19.20;99.90
670;DHT22;317;48.758;9.302;2022-08-14T07:16:42;19.40;99.90
670;DHT22;317;48.758;9.302;2022-08-14T07:19:09;19.40;99.90
670;DHT22;317;48.758;9.302;2022-08-14T07:21:36;19.60;99.90
670;DHT22;317;48.758;9.302;2022-08-14T07:24:04;19.70;99.90
670;DHT22;317;48.758;9.302;2022-08-14T07:26:32;19.70;99.90
670;DHT22;317;48.758;9.302;2022-08-14T07:28:59;19.90;99.90
670;DHT22;317;48.758;9.302;2022-08-14T07:31:27;20.00;99.70
670;DHT22;317;48.758;9.302;2022-08-14T07:33:54;20.20;99.50
670;DHT22;317;48.758;9.302;2022-08-14T07:36:21;20.30;99.00
670;DHT22;317;48.758;9.302;2022-08-14T07:38:49;20.30;98.30
670;DHT22;317;48.758;9.302;2022-08-14T07:41:15;20.50;98.30
670;DHT22;317;48.758;9.302;2022-08-14T07:43:43;20.60;97.90
670;DHT22;317;48.758;9.302;2022-08-14T07:46:10;20.80;97.60
670;DHT22;317;48.758;9.302;2022-08-14T07:48:41;20.90;97.50
670;DHT22;317;48.758;9.302;2022-08-14T07:51:09;21.10;97.20
670;DHT22;317;48.758;9.302;2022-08-14T07:53:35;21.20;96.90
670;DHT22;317;48.758;9.302;2022-08-14T07:56:02;21.30;96.50
670;DHT22;317;48.758;9.302;2022-08-14T07:58:29;21.50;96.20
670;DHT22;317;48.758;9.302;2022-08-14T08:00:57;21.60;95.60
670;DHT22;317;48.758;9.302;2022-08-14T08:03:25;21.70;94.90
670;DHT22;317;48.758;9.302;2022-08-14T08:05:53;21.80;94.60
670;DHT22;317;48.758;9.302;2022-08-14T08:08:21;22.00;94.10
670;DHT22;317;48.758;9.302;2022-08-14T08:10:48;22.10;93.80
670;DHT22;317;48.758;9.302;2022-08-14T08:13:18;22.30;93.60
670;DHT22;317;48.758;9.302;2022-08-14T08:15:47;22.40;93.40
670;DHT22;317;48.758;9.302;2022-08-14T08:18:15;22.60;93.00
670;DHT22;317;48.758;9.302;2022-08-14T08:20:44;22.70;92.70
670;DHT22;317;48.758;9.302;2022-08-14T08:23:14;22.90;92.40
670;DHT22;317;48.758;9.302;2022-08-14T08:25:44;23.00;92.10
670;DHT22;317;48.758;9.302;2022-08-14T08:28:14;23.20;92.00
670;DHT22;317;48.758;9.302;2022-08-14T08:30:42;23.30;91.40
670;DHT22;317;48.758;9.302;2022-08-14T08:33:12;23.50;91.30
670;DHT22;317;48.758;9.302;2022-08-14T08:35:41;23.60;90.90
670;DHT22;317;48.758;9.302;2022-08-14T08:38:09;23.70;90.40
670;DHT22;317;48.758;9.302;2022-08-14T08:40:41;23.90;90.00
670;DHT22;317;48.758;9.302;2022-08-14T08:43:16;24.00;88.90
670;DHT22;317;48.758;9.302;2022-08-14T08:45:52;24.10;86.40
670;DHT22;317;48.758;9.302;2022-08-14T08:48:20;24.30;86.70
670;DHT22;317;48.758;9.302;2022-08-14T08:50:49;24.30;85.30
670;DHT22;317;48.758;9.302;2022-08-14T08:53:15;24.50;84.20
670;DHT22;317;48.758;9.302;2022-08-14T08:55:45;24.70;80.70
670;DHT22;317;48.758;9.302;2022-08-14T08:58:15;24.90;79.20
670;DHT22;317;48.758;9.302;2022-08-14T09:00:46;25.00;80.10
670;DHT22;317;48.758;9.302;2022-08-14T09:03:14;25.20;78.30
670;DHT22;317;48.758;9.302;2022-08-14T09:05:50;25.30;73.30
670;DHT22;317;48.758;9.302;2022-08-14T09:08:19;25.40;73.30
670;DHT22;317;48.758;9.302;2022-08-14T09:10:48;25.60;71.80
670;DHT22;317;48.758;9.302;2022-08-14T09:13:15;25.70;70.30
670;DHT22;317;48.758;9.302;2022-08-14T09:15:43;25.80;69.50
670;DHT22;317;48.758;9.302;2022-08-14T09:18:12;25.90;69.10
670;DHT22;317;48.758;9.302;2022-08-14T09:20:41;26.00;69.70
670;DHT22;317;48.758;9.302;2022-08-14T09:23:09;26.10;67.90
670;DHT22;317;48.758;9.302;2022-08-14T09:25:37;26.20;67.20
670;DHT22;317;48.758;9.302;2022-08-14T09:28:07;26.40;67.30
670;DHT22;317;48.758;9.302;2022-08-14T09:30:37;26.40;66.80
670;DHT22;317;48.758;9.302;2022-08-14T09:33:19;26.50;65.70
670;DHT22;317;48.758;9.302;2022-08-14T09:35:57;26.60;65.20
670;DHT22;317;48.758;9.302;2022-08-14T09:38:35;26.60;65.00
670;DHT22;317;48.758;9.302;2022-08-14T09:41:09;26.70;64.40
670;DHT22;317;48.758;9.302;2022-08-14T09:43:48;26.90;64.70
670;DHT22;317;48.758;9.302;2022-08-14T09:46:17;27.00;62.90
670;DHT22;317;48.758;9.302;2022-08-14T09:48:44;27.10;62.30
670;DHT22;317;48.758;9.302;2022-08-14T09:51:21;27.20;61.60
670;DHT22;317;48.758;9.302;2022-08-14T09:54:00;27.30;60.70
670;DHT22;317;48.758;9.302;2022-08-14T09:56:28;27.30;61.60
670;DHT22;317;48.758;9.302;2022-08-14T09:58:57;27.30;60.10
670;DHT22;317;48.758;9.302;2022-08-14T10:01:35;27.40;59.90
670;DHT22;317;48.758;9.302;2022-08-14T10:04:08;27.40;59.40
670;DHT22;317;48.758;9.302;2022-08-14T10:06:43;27.50;59.50
670;DHT22;317;48.758;9.302;2022-08-14T10:09:10;27.50;59.00
670;DHT22;317;48.758;9.302;2022-08-14T10:11:39;27.50;59.50
670;DHT22;317;48.758;9.302;2022-08-14T10:14:17;27.70;59.20
670;DHT22;317;48.758;9.302;2022-08-14T10:16:47;27.80;58.50
670;DHT22;317;48.758;9.302;2022-08-14T10:19:16;27.90;58.30
670;DHT22;317;48.758;9.302;2022-08-14T10:21:56;27.90;57.20
670;DHT22;317;48.758;9.302;2022-08-14T10:24:24;27.90;57.30
670;DHT22;317;48.758;9.302;2022-08-14T10:26:53;28.10;57.30
670;DHT22;317;48.758;9.302;2022-08-14T10:29:30;28.20;56.80
670;DHT22;317;48.758;9.302;2022-08-14T10:31:58;28.30;56.50
670;DHT22;317;48.758;9.302;2022-08-14T10:34:30;28.50;55.60
670;DHT22;317;48.758;9.302;2022-08-14T10:37:02;28.60;56.40
670;DHT22;317;48.758;9.302;2022-08-14T10:39:30;28.90;55.20
670;DHT22;317;48.758;9.302;2022-08-14T10:41:59;29.10;54.00
670;DHT22;317;48.758;9.302;2022-08-14T10:44:33;29.20;55.00
670;DHT22;317;48.758;9.302;2022-08-14T10:47:01;29.50;53.90
670;DHT22;317;48.758;9.302;2022-08-14T10:49:30;29.60;53.00
670;DHT22;317;48.758;9.302;2022-08-14T10:52:01;29.90;53.60
670;DHT22;317;48.758;9.302;2022-08-14T10:54:36;30.10;51.70
670;DHT22;317;48.758;9.302;2022-08-14T10:57:15;30.20;51.90
670;DHT22;317;48.758;9.302;2022-08-14T10:59:50;30.40;50.80
670;DHT22;317;48.758;9.302;2022-08-14T11:02:20;30.50;51.30
670;DHT22;317;48.758;9.302;2022-08-14T11:05:00;30.70;50.10
670;DHT22;317;48.758;9.302;2022-08-14T11:07:29;30.80;50.10
670;DHT22;317;48.758;9.302;2022-08-14T11:09:57;31.00;49.40
670;DHT22;317;48.758;9.302;2022-08-14T11:12:26;31.20;48.80
670;DHT22;317;48.758;9.302;2022-08-14T11:14:56;31.20;48.50
670;DHT22;317;48.758;9.302;2022-08-14T11:17:24;31.40;48.50
670;DHT22;317;48.758;9.302;2022-08-14T11:19:57;31.40;47.20
670;DHT22;317;48.758;9.302;2022-08-14T11:22:26;31.60;47.90
670;DHT22;317;48.758;9.302;2022-08-14T11:24:54;32.00;47.70
670;DHT22;317;48.758;9.302;2022-08-14T11:27:23;32.40;45.50
670;DHT22;317;48.758;9.302;2022-08-14T11:29:52;32.50;45.10
670;DHT22;317;48.758;9.302;2022-08-14T11:32:20;32.70;45.00
670;DHT22;317;48.758;9.302;2022-08-14T11:34:47;33.10;44.60
670;DHT22;317;48.758;9.302;2022-08-14T11:37:17;33.40;43.90
670;DHT22;317;48.758;9.302;2022-08-14T11:39:45;33.60;43.70
670;DHT22;317;48.758;9.302;2022-08-14T11:42:20;33.80;43.00
670;DHT22;317;48.758;9.302;2022-08-14T11:44:48;33.90;42.20
670;DHT22;317;48.758;9.302;2022-08-14T11:47:15;33.70;42.20
670;DHT22;317;48.758;9.302;2022-08-14T11:49:45;33.80;41.80
670;DHT22;317;48.758;9.302;2022-08-14T11:52:14;34.00;42.10
670;DHT22;317;48.758;9.302;2022-08-14T11:54:42;34.30;41.40
670;DHT22;317;48.758;9.302;2022-08-14T11:57:15;34.70;40.70
670;DHT22;317;48.758;9.302;2022-08-14T11:59:44;35.10;39.30
670;DHT22;317;48.758;9.302;2022-08-14T12:02:13;34.90;39.30
670;DHT22;317;48.758;9.302;2022-08-14T12:07:51;35.30;39.90
670;DHT22;317;48.758;9.302;2022-08-14T12:10:19;36.10;37.40
670;DHT22;317;48.758;9.302;2022-08-14T12:12:46;36.30;37.30
670;DHT22;317;48.758;9.302;2022-08-14T12:15:31;36.70;36.40
670;DHT22;317;48.758;9.302;2022-08-14T12:17:58;37.00;36.10
670;DHT22;317;48.758;9.302;2022-08-14T12:20:30;37.30;34.80
670;DHT22;317;48.758;9.302;2022-08-14T12:22:59;37.60;31.90
670;DHT22;317;48.758;9.302;2022-08-14T12:25:27;37.30;31.60
670;DHT22;317;48.758;9.302;2022-08-14T12:27:55;37.20;31.80
670;DHT22;317;48.758;9.302;2022-08-14T12:30:31;37.50;31.10
670;DHT22;317;48.758;9.302;2022-08-14T12:32:59;37.10;31.20
670;DHT22;317;48.758;9.302;2022-08-14T12:35:38;37.50;31.40
670;DHT22;317;48.758;9.302;2022-08-14T12:38:07;37.40;29.80
670;DHT22;317;48.758;9.302;2022-08-14T12:40:44;37.40;30.80
670;DHT22;317;48.758;9.302;2022-08-14T12:43:11;37.90;31.80
670;DHT22;317;48.758;9.302;2022-08-14T12:45:38;38.30;31.30
670;DHT22;317;48.758;9.302;2022-08-14T12:48:06;38.70;31.00
670;DHT22;317;48.758;9.302;2022-08-14T12:50:35;39.20;30.40
670;DHT22;317;48.758;9.302;2022-08-14T12:53:02;39.10;29.60
670;DHT22;317;48.758;9.302;2022-08-14T12:55:31;38.40;29.50
670;DHT22;317;48.758;9.302;2022-08-14T12:58:00;38.60;29.00
670;DHT22;317;48.758;9.302;2022-08-14T13:00:30;38.80;28.80
670;DHT22;317;48.758;9.302;2022-08-14T13:02:57;39.10;29.10
670;DHT22;317;48.758;9.302;2022-08-14T13:05:26;39.70;29.70
670;DHT22;317;48.758;9.302;2022-08-14T13:07:57;40.10;28.60
670;DHT22;317;48.758;9.302;2022-08-14T13:10:25;40.30;28.30
670;DHT22;317;48.758;9.302;2022-08-14T13:12:55;40.70;28.20
670;DHT22;317;48.758;9.302;2022-08-14T13:15:22;40.30;27.70
670;DHT22;317;48.758;9.302;2022-08-14T13:17:51;40.50;27.10
670;DHT22;317;48.758;9.302;2022-08-14T13:20:20;40.70;27.10
670;DHT22;317;48.758;9.302;2022-08-14T13:22:47;40.80;27.70
670;DHT22;317;48.758;9.302;2022-08-14T13:25:17;41.30;27.10
670;DHT22;317;48.758;9.302;2022-08-14T13:27:46;41.40;25.50
670;DHT22;317;48.758;9.302;2022-08-14T13:30:15;41.50;26.40
670;DHT22;317;48.758;9.302;2022-08-14T13:32:43;41.70;25.50
670;DHT22;317;48.758;9.302;2022-08-14T13:35:10;42.10;26.10
670;DHT22;317;48.758;9.302;2022-08-14T13:37:39;42.30;25.80
670;DHT22;317;48.758;9.302;2022-08-14T13:40:07;42.60;25.40
670;DHT22;317;48.758;9.302;2022-08-14T13:42:34;42.60;24.20
670;DHT22;317;48.758;9.302;2022-08-14T13:45:03;42.40;24.20
670;DHT22;317;48.758;9.302;2022-08-14T13:47:32;42.50;24.20
670;DHT22;317;48.758;9.302;2022-08-14T13:50:02;43.00;24.60
670;DHT22;317;48.758;9.302;2022-08-14T13:52:32;43.10;23.70
670;DHT22;317;48.758;9.302;2022-08-14T13:55:03;42.70;23.20
670;DHT22;317;48.758;9.302;2022-08-14T13:57:32;42.50;23.30
670;DHT22;317;48.758;9.302;2022-08-14T14:00:02;42.60;23.50
670;DHT22;317;48.758;9.302;2022-08-14T14:02:33;42.50;22.80
670;DHT22;317;48.758;9.302;2022-08-14T14:05:04;42.60;23.20
670;DHT22;317;48.758;9.302;2022-08-14T14:07:33;43.00;23.40
670;DHT22;317;48.758;9.302;2022-08-14T14:10:03;43.20;23.00
670;DHT22;317;48.758;9.302;2022-08-14T14:12:33;42.80;23.20
670;DHT22;317;48.758;9.302;2022-08-14T14:15:03;42.20;23.30
670;DHT22;317;48.758;9.302;2022-08-14T14:17:34;42.40;23.70
670;DHT22;317;48.758;9.302;2022-08-14T14:20:04;43.00;23.30
670;DHT22;317;48.758;9.302;2022-08-14T14:22:31;43.20;23.10
670;DHT22;317;48.758;9.302;2022-08-14T14:24:58;43.80;23.40
670;DHT22;317;48.758;9.302;2022-08-14T14:27:26;44.20;22.70
670;DHT22;317;48.758;9.302;2022-08-14T14:29:57;44.30;22.60
670;DHT22;317;48.758;9.302;2022-08-14T14:32:28;44.20;22.50
670;DHT22;317;48.758;9.302;2022-08-14T14:34:58;43.90;22.00
670;DHT22;317;48.758;9.302;2022-08-14T14:37:29;43.60;22.30
670;DHT22;317;48.758;9.302;2022-08-14T14:39:57;43.70;21.90
670;DHT22;317;48.758;9.302;2022-08-14T14:42:26;43.90;22.40
670;DHT22;317;48.758;9.302;2022-08-14T14:44:58;44.40;22.90
670;DHT22;317;48.758;9.302;2022-08-14T14:47:27;44.50;22.60
670;DHT22;317;48.758;9.302;2022-08-14T14:49:57;44.10;22.00
670;DHT22;317;48.758;9.302;2022-08-14T14:52:24;43.60;22.20
670;DHT22;317;48.758;9.302;2022-08-14T14:54:54;43.70;22.50
670;DHT22;317;48.758;9.302;2022-08-14T14:57:22;43.80;22.50
670;DHT22;317;48.758;9.302;2022-08-14T14:59:49;44.00;22.20
670;DHT22;317;48.758;9.302;2022-08-14T15:02:25;43.60;22.20
670;DHT22;317;48.758;9.302;2022-08-14T15:04:57;43.60;22.00
670;DHT22;317;48.758;9.302;2022-08-14T15:07:23;43.00;22.20
670;DHT22;317;48.758;9.302;2022-08-14T15:09:50;42.50;22.20
670;DHT22;317;48.758;9.302;2022-08-14T15:12:17;42.70;22.30
670;DHT22;317;48.758;9.302;2022-08-14T15:14:44;42.50;22.20
670;DHT22;317;48.758;9.302;2022-08-14T15:17:13;42.60;22.60
670;DHT22;317;48.758;9.302;2022-08-14T15:19:40;42.00;22.60
670;DHT22;317;48.758;9.302;2022-08-14T15:22:08;41.00;23.10
670;DHT22;317;48.758;9.302;2022-08-14T15:24:35;40.10;23.40
670;DHT22;317;48.758;9.302;2022-08-14T15:27:02;38.90;23.40
670;DHT22;317;48.758;9.302;2022-08-14T15:29:32;38.80;23.80
670;DHT22;317;48.758;9.302;2022-08-14T15:32:06;38.70;23.50
670;DHT22;317;48.758;9.302;2022-08-14T15:34:34;38.70;23.40
670;DHT22;317;48.758;9.302;2022-08-14T15:37:03;38.50;23.30
670;DHT22;317;48.758;9.302;2022-08-14T15:39:32;38.20;23.50
670;DHT22;317;48.758;9.302;2022-08-14T15:41:59;38.20;23.70
670;DHT22;317;48.758;9.302;2022-08-14T15:44:27;38.40;23.20
670;DHT22;317;48.758;9.302;2022-08-14T15:46:54;38.30;23.10
670;DHT22;317;48.758;9.302;2022-08-14T15:49:22;38.50;23.40
670;DHT22;317;48.758;9.302;2022-08-14T15:51:52;38.80;23.40
670;DHT22;317;48.758;9.302;2022-08-14T15:54:20;39.00;22.90
670;DHT22;317;48.758;9.302;2022-08-14T15:56:56;39.00;22.90
670;DHT22;317;48.758;9.302;2022-08-14T15:59:23;38.70;22.90
670;DHT22;317;48.758;9.302;2022-08-14T16:01:50;38.50;23.60
670;DHT22;317;48.758;9.302;2022-08-14T16:04:17;38.10;23.40
670;DHT22;317;48.758;9.302;2022-08-14T16:06:47;37.80;23.70
670;DHT22;317;48.758;9.302;2022-08-14T16:09:15;37.50;23.90
670;DHT22;317;48.758;9.302;2022-08-14T16:11:42;37.20;23.90
670;DHT22;317;48.758;9.302;2022-08-14T16:14:11;36.90;23.90
670;DHT22;317;48.758;9.302;2022-08-14T16:16:38;36.70;24.10
670;DHT22;317;48.758;9.302;2022-08-14T16:19:07;36.50;24.30
670;DHT22;317;48.758;9.302;2022-08-14T16:21:35;36.80;24.30
670;DHT22;317;48.758;9.302;2022-08-14T16:24:04;36.90;23.80
670;DHT22;317;48.758;9.302;2022-08-14T16:26:31;37.30;23.90
670;DHT22;317;48.758;9.302;2022-08-14T16:28:59;37.20;23.50
670;DHT22;317;48.758;9.302;2022-08-14T16:31:30;37.40;23.60
670;DHT22;317;48.758;9.302;2022-08-14T16:33:57;37.80;23.60
670;DHT22;317;48.758;9.302;2022-08-14T16:36:24;38.10;23.00
670;DHT22;317;48.758;9.302;2022-08-14T16:38:55;38.00;23.20
670;DHT22;317;48.758;9.302;2022-08-14T16:41:23;37.60;22.70
670;DHT22;317;48.758;9.302;2022-08-14T16:43:57;37.20;22.80
670;DHT22;317;48.758;9.302;2022-08-14T16:46:27;36.80;23.00
670;DHT22;317;48.758;9.302;2022-08-14T16:48:57;36.30;23.30